sensor_id;sensor_type;location;lat;lon;timestamp;temperature;humidity
33739;DHT22;20063;51.730;11.110;2023-05-31T00:02:13;12.10;99.90
33739;DHT22;20063;51.730;11.110;2023-05-31T00:04:39;12.00;99.90
33739;DHT22;20063;51.730;11.110;2023-05-31T00:07:06;11.90;99.90
33739;DHT22;20063;51.730;11.110;2023-05-31T00:09:32;11.90;99.90
33739;DHT22;20063;51.730;11.110;2023-05-31T00:11:57;11.90;99.90
33739;DHT22;20063;51.730;11.110;2023-05-31T00:14:23;11.80;99.90
33739;DHT22;20063;51.730;11.110;2023-05-31T00:16:49;11.80;99.90
33739;DHT22;20063;51.730;11.110;2023-05-31T00:19:14;11.80;99.90
33739;DHT22;20063;51.730;11.110;2023-05-31T00:21:40;11.80;99.90
33739;DHT22;20063;51.730;11.110;2023-05-31T00:24:06;11.90;99.90
33739;DHT22;20063;51.730;11.110;2023-05-31T00:26:32;11.90;99.90
33739;DHT22;20063;51.730;11.110;2023-05-31T00:28:57;11.80;99.90
33739;DHT22;20063;51.730;11.110;2023-05-31T00:31:23;11.80;99.90
33739;DHT22;20063;51.730;11.110;2023-05-31T00:33:48;11.80;99.90
33739;DHT22;20063;51.730;11.110;2023-05-31T00:36:14;11.80;99.90
33739;DHT22;20063;51.730;11.110;2023-05-31T00:38:40;11.70;99.90
33739;DHT22;20063;51.730;11.110;2023-05-31T00:41:08;11.70;99.90
33739;DHT22;20063;51.730;11.110;2023-05-31T00:43:34;11.60;99.90
33739;DHT22;20063;51.730;11.110;2023-05-31T00:46:00;11.60;99.90
33739;DHT22;20063;51.730;11.110;2023-05-31T00:48:25;11.60;99.90
33739;DHT22;20063;51.730;11.110;2023-05-31T00:50:51;11.60;99.90
33739;DHT22;20063;51.730;11.110;2023-05-31T00:53:18;11.60;99.90
33739;DHT22;20063;51.730;11.110;2023-05-31T00:55:44;11.60;99.90
33739;DHT22;20063;51.730;11.110;2023-05-31T00:58:10;11.60;99.90
33739;DHT22;20063;51.730;11.110;2023-05-31T01:00:36;11.60;99.90
33739;DHT22;20063;51.730;11.110;2023-05-31T01:03:02;11.50;99.90
33739;DHT22;20063;51.730;11.110;2023-05-31T01:05:28;11.50;99.90
33739;DHT22;20063;51.730;11.110;2023-05-31T01:07:54;11.50;99.90
33739;DHT22;20063;51.730;11.110;2023-05-31T01:10:20;11.50;99.90
33739;DHT22;20063;51.730;11.110;2023-05-31T01:13:05;11.40;99.90
33739;DHT22;20063;51.730;11.110;2023-05-31T01:15:37;11.30;99.90
33739;DHT22;20063;51.730;11.110;2023-05-31T01:20:38;11.20;99.90
33739;DHT22;20063;51.730;11.110;2023-05-31T01:28:53;11.20;99.90
33739;DHT22;20063;51.730;11.110;2023-05-31T01:31:21;11.10;99.90
33739;DHT22;20063;51.730;11.110;2023-05-31T01:33:48;11.10;99.90
33739;DHT22;20063;51.730;11.110;2023-05-31T01:36:15;11.00;99.90
33739;DHT22;20063;51.730;11.110;2023-05-31T01:38:40;11.10;99.90
33739;DHT22;20063;51.730;11.110;2023-05-31T01:41:06;11.00;99.90
33739;DHT22;20063;51.730;11.110;2023-05-31T01:43:34;11.00;99.90
33739;DHT22;20063;51.730;11.110;2023-05-31T01:46:01;11.00;99.90
33739;DHT22;20063;51.730;11.110;2023-05-31T01:48:27;11.00;99.90
33739;DHT22;20063;51.730;11.110;2023-05-31T01:50:54;11.00;99.90
33739;DHT22;20063;51.730;11.110;2023-05-31T01:53:21;10.90;99.90
33739;DHT22;20063;51.730;11.110;2023-05-31T01:55:47;10.90;99.90
33739;DHT22;20063;51.730;11.110;2023-05-31T01:58:13;10.80;99.90
33739;DHT22;20063;51.730;11.110;2023-05-31T02:00:41;10.80;99.90
33739;DHT22;20063;51.730;11.110;2023-05-31T02:03:08;10.80;99.90
33739;DHT22;20063;51.730;11.110;2023-05-31T02:05:33;10.70;99.90
33739;DHT22;20063;51.730;11.110;2023-05-31T02:07:59;10.70;99.90
33739;DHT22;20063;51.730;11.110;2023-05-31T02:10:25;10.70;99.90
33739;DHT22;20063;51.730;11.110;2023-05-31T02:12:50;10.60;99.90
33739;DHT22;20063;51.730;11.110;2023-05-31T02:15:18;10.60;99.90
33739;DHT22;20063;51.730;11.110;2023-05-31T02:17:45;10.60;99.90
33739;DHT22;20063;51.730;11.110;2023-05-31T02:20:14;10.50;99.90
33739;DHT22;20063;51.730;11.110;2023-05-31T02:22:41;10.50;99.90
33739;DHT22;20063;51.730;11.110;2023-05-31T02:25:08;10.50;99.90
33739;DHT22;20063;51.730;11.110;2023-05-31T02:27:35;10.50;99.90
33739;DHT22;20063;51.730;11.110;2023-05-31T02:30:01;10.40;99.90
33739;DHT22;20063;51.730;11.110;2023-05-31T02:32:26;10.40;99.90
33739;DHT22;20063;51.730;11.110;2023-05-31T02:34:52;10.30;99.90
33739;DHT22;20063;51.730;11.110;2023-05-31T02:37:17;10.30;99.90
33739;DHT22;20063;51.730;11.110;2023-05-31T02:39:43;10.30;99.90
33739;DHT22;20063;51.730;11.110;2023-05-31T02:42:08;10.30;99.90
33739;DHT22;20063;51.730;11.110;2023-05-31T02:44:34;10.30;99.90
33739;DHT22;20063;51.730;11.110;2023-05-31T02:46:59;10.30;99.90
33739;DHT22;20063;51.730;11.110;2023-05-31T02:49:25;10.30;99.90
33739;DHT22;20063;51.730;11.110;2023-05-31T02:51:51;10.30;99.90
33739;DHT22;20063;51.730;11.110;2023-05-31T02:54:17;10.30;99.90
33739;DHT22;20063;51.730;11.110;2023-05-31T02:56:43;10.30;99.90
33739;DHT22;20063;51.730;11.110;2023-05-31T02:59:09;10.20;99.90
33739;DHT22;20063;51.730;11.110;2023-05-31T03:01:34;10.20;99.90
33739;DHT22;20063;51.730;11.110;2023-05-31T03:04:00;10.20;99.90
33739;DHT22;20063;51.730;11.110;2023-05-31T03:06:25;10.20;99.90
33739;DHT22;20063;51.730;11.110;2023-05-31T03:08:52;10.10;99.90
33739;DHT22;20063;51.730;11.110;2023-05-31T03:11:18;10.10;99.90
33739;DHT22;20063;51.730;11.110;2023-05-31T03:13:43;10.20;99.90
33739;DHT22;20063;51.730;11.110;2023-05-31T03:16:09;10.20;99.90
33739;DHT22;20063;51.730;11.110;2023-05-31T03:18:34;10.10;99.90
33739;DHT22;20063;51.730;11.110;2023-05-31T03:21:00;10.10;99.90
33739;DHT22;20063;51.730;11.110;2023-05-31T03:23:25;10.00;99.90
33739;DHT22;20063;51.730;11.110;2023-05-31T03:25:54;10.00;99.90
33739;DHT22;20063;51.730;11.110;2023-05-31T03:28:21;10.00;99.90
33739;DHT22;20063;51.730;11.110;2023-05-31T03:30:46;10.00;99.90
33739;DHT22;20063;51.730;11.110;2023-05-31T03:33:15;9.90;99.90
33739;DHT22;20063;51.730;11.110;2023-05-31T03:35:40;9.90;99.90
33739;DHT22;20063;51.730;11.110;2023-05-31T03:38:06;9.90;99.90
33739;DHT22;20063;51.730;11.110;2023-05-31T03:40:31;9.90;99.90
33739;DHT22;20063;51.730;11.110;2023-05-31T03:42:57;9.80;99.90
33739;DHT22;20063;51.730;11.110;2023-05-31T03:45:22;9.90;99.90
33739;DHT22;20063;51.730;11.110;2023-05-31T03:47:48;9.90;99.90
33739;DHT22;20063;51.730;11.110;2023-05-31T03:50:13;9.90;99.90
33739;DHT22;20063;51.730;11.110;2023-05-31T03:52:39;9.90;99.90
33739;DHT22;20063;51.730;11.110;2023-05-31T03:55:05;9.90;99.90
33739;DHT22;20063;51.730;11.110;2023-05-31T03:57:31;9.90;99.90
33739;DHT22;20063;51.730;11.110;2023-05-31T04:00:17;9.90;99.90
33739;DHT22;20063;51.730;11.110;2023-05-31T04:02:42;10.00;99.90
33739;DHT22;20063;51.730;11.110;2023-05-31T04:05:08;10.00;99.90
33739;DHT22;20063;51.730;11.110;2023-05-31T04:07:33;10.00;99.90
33739;DHT22;20063;51.730;11.110;2023-05-31T04:09:59;10.00;99.90
33739;DHT22;20063;51.730;11.110;2023-05-31T04:12:25;10.10;99.90
33739;DHT22;20063;51.730;11.110;2023-05-31T04:14:50;10.10;99.90
33739;DHT22;20063;51.730;11.110;2023-05-31T04:17:16;10.20;99.90
33739;DHT22;20063;51.730;11.110;2023-05-31T04:19:42;10.20;99.90
33739;DHT22;20063;51.730;11.110;2023-05-31T04:22:07;10.30;99.90
33739;DHT22;20063;51.730;11.110;2023-05-31T04:24:33;10.30;99.90
33739;DHT22;20063;51.730;11.110;2023-05-31T04:26:58;10.40;99.90
33739;DHT22;20063;51.730;11.110;2023-05-31T04:29:24;10.40;99.90
33739;DHT22;20063;51.730;11.110;2023-05-31T04:31:52;10.50;99.90
33739;DHT22;20063;51.730;11.110;2023-05-31T04:34:18;10.50;99.90
33739;DHT22;20063;51.730;11.110;2023-05-31T04:36:44;10.60;99.90
33739;DHT22;20063;51.730;11.110;2023-05-31T04:39:17;10.70;99.90
33739;DHT22;20063;51.730;11.110;2023-05-31T04:41:45;10.70;99.90
33739;DHT22;20063;51.730;11.110;2023-05-31T04:44:11;10.80;99.90
33739;DHT22;20063;51.730;11.110;2023-05-31T04:46:37;10.80;99.90
33739;DHT22;20063;51.730;11.110;2023-05-31T04:49:02;11.00;99.90
33739;DHT22;20063;51.730;11.110;2023-05-31T04:51:28;11.10;99.90
33739;DHT22;20063;51.730;11.110;2023-05-31T04:53:54;11.10;99.90
33739;DHT22;20063;51.730;11.110;2023-05-31T04:56:19;11.30;99.90
33739;DHT22;20063;51.730;11.110;2023-05-31T04:58:47;11.40;99.90
33739;DHT22;20063;51.730;11.110;2023-05-31T05:01:15;11.60;99.90
33739;DHT22;20063;51.730;11.110;2023-05-31T05:03:41;11.80;99.90
33739;DHT22;20063;51.730;11.110;2023-05-31T05:06:14;11.90;99.90
33739;DHT22;20063;51.730;11.110;2023-05-31T05:08:41;12.00;99.90
33739;DHT22;20063;51.730;11.110;2023-05-31T05:11:07;12.20;99.90
33739;DHT22;20063;51.730;11.110;2023-05-31T05:13:32;12.30;99.90
33739;DHT22;20063;51.730;11.110;2023-05-31T05:15:58;12.40;99.90
33739;DHT22;20063;51.730;11.110;2023-05-31T05:18:24;12.40;99.90
33739;DHT22;20063;51.730;11.110;2023-05-31T05:20:49;12.50;99.90
33739;DHT22;20063;51.730;11.110;2023-05-31T05:23:15;12.60;99.90
33739;DHT22;20063;51.730;11.110;2023-05-31T05:25:40;12.70;99.90
33739;DHT22;20063;51.730;11.110;2023-05-31T05:28:06;12.70;99.90
33739;DHT22;20063;51.730;11.110;2023-05-31T05:30:31;12.80;99.90
33739;DHT22;20063;51.730;11.110;2023-05-31T05:32:57;12.80;99.90
33739;DHT22;20063;51.730;11.110;2023-05-31T05:35:23;12.90;99.90
33739;DHT22;20063;51.730;11.110;2023-05-31T05:37:49;12.90;99.90
33739;DHT22;20063;51.730;11.110;2023-05-31T05:40:15;13.00;99.90
33739;DHT22;20063;51.730;11.110;2023-05-31T05:42:41;13.00;99.90
33739;DHT22;20063;51.730;11.110;2023-05-31T05:45:07;13.10;99.90
33739;DHT22;20063;51.730;11.110;2023-05-31T05:47:33;13.10;99.90
33739;DHT22;20063;51.730;11.110;2023-05-31T05:50:00;13.20;99.90
33739;DHT22;20063;51.730;11.110;2023-05-31T05:52:26;13.20;99.90
33739;DHT22;20063;51.730;11.110;2023-05-31T05:54:51;13.20;99.90
33739;DHT22;20063;51.730;11.110;2023-05-31T05:57:17;13.30;99.90
33739;DHT22;20063;51.730;11.110;2023-05-31T05:59:42;13.40;99.90
33739;DHT22;20063;51.730;11.110;2023-05-31T06:02:09;13.40;99.90
33739;DHT22;20063;51.730;11.110;2023-05-31T06:04:35;13.40;99.90
33739;DHT22;20063;51.730;11.110;2023-05-31T06:07:00;13.40;99.90
33739;DHT22;20063;51.730;11.110;2023-05-31T06:09:26;13.40;99.90
33739;DHT22;20063;51.730;11.110;2023-05-31T06:12:03;13.50;99.90
33739;DHT22;20063;51.730;11.110;2023-05-31T06:14:29;13.60;99.90
33739;DHT22;20063;51.730;11.110;2023-05-31T06:16:54;13.60;99.90
33739;DHT22;20063;51.730;11.110;2023-05-31T06:19:20;13.70;99.90
33739;DHT22;20063;51.730;11.110;2023-05-31T06:21:45;13.70;99.90
33739;DHT22;20063;51.730;11.110;2023-05-31T06:24:11;13.70;99.90
33739;DHT22;20063;51.730;11.110;2023-05-31T06:26:37;13.80;99.90
33739;DHT22;20063;51.730;11.110;2023-05-31T06:29:03;13.80;99.90
33739;DHT22;20063;51.730;11.110;2023-05-31T06:31:29;13.90;99.90
33739;DHT22;20063;51.730;11.110;2023-05-31T06:33:56;13.90;99.90
33739;DHT22;20063;51.730;11.110;2023-05-31T06:36:25;13.90;99.90
33739;DHT22;20063;51.730;11.110;2023-05-31T06:38:50;14.00;99.90
33739;DHT22;20063;51.730;11.110;2023-05-31T06:41:16;14.00;99.90
33739;DHT22;20063;51.730;11.110;2023-05-31T06:43:41;14.10;99.90
33739;DHT22;20063;51.730;11.110;2023-05-31T06:46:07;14.20;99.90
33739;DHT22;20063;51.730;11.110;2023-05-31T06:48:35;14.20;99.90
33739;DHT22;20063;51.730;11.110;2023-05-31T06:51:01;14.30;99.90
33739;DHT22;20063;51.730;11.110;2023-05-31T06:53:26;14.30;99.90
33739;DHT22;20063;51.730;11.110;2023-05-31T06:55:52;14.30;99.90
33739;DHT22;20063;51.730;11.110;2023-05-31T06:58:17;14.40;99.90
33739;DHT22;20063;51.730;11.110;2023-05-31T07:00:43;14.50;99.90
33739;DHT22;20063;51.730;11.110;2023-05-31T07:03:09;14.50;99.90
33739;DHT22;20063;51.730;11.110;2023-05-31T07:05:35;14.50;99.90
33739;DHT22;20063;51.730;11.110;2023-05-31T07:08:00;14.60;99.90
33739;DHT22;20063;51.730;11.110;2023-05-31T07:10:26;14.70;99.90
33739;DHT22;20063;51.730;11.110;2023-05-31T07:12:55;14.80;99.90
33739;DHT22;20063;51.730;11.110;2023-05-31T07:15:20;14.80;99.90
33739;DHT22;20063;51.730;11.110;2023-05-31T07:17:46;14.80;99.90
33739;DHT22;20063;51.730;11.110;2023-05-31T07:20:11;14.80;99.90
33739;DHT22;20063;51.730;11.110;2023-05-31T07:22:37;14.90;99.90
33739;DHT22;20063;51.730;11.110;2023-05-31T07:25:04;15.00;99.90
33739;DHT22;20063;51.730;11.110;2023-05-31T07:27:31;15.00;99.90
33739;DHT22;20063;51.730;11.110;2023-05-31T07:29:56;15.10;99.90
33739;DHT22;20063;51.730;11.110;2023-05-31T07:32:22;15.10;99.90
33739;DHT22;20063;51.730;11.110;2023-05-31T07:34:48;15.20;99.90
33739;DHT22;20063;51.730;11.110;2023-05-31T07:37:13;15.30;99.90
33739;DHT22;20063;51.730;11.110;2023-05-31T07:39:39;15.30;99.90
33739;DHT22;20063;51.730;11.110;2023-05-31T07:42:05;15.30;99.90
33739;DHT22;20063;51.730;11.110;2023-05-31T07:44:30;15.40;99.90
33739;DHT22;20063;51.730;11.110;2023-05-31T07:46:56;15.40;99.90
33739;DHT22;20063;51.730;11.110;2023-05-31T07:49:25;15.50;99.90
33739;DHT22;20063;51.730;11.110;2023-05-31T07:51:51;15.60;99.90
33739;DHT22;20063;51.730;11.110;2023-05-31T07:54:17;15.60;99.90
33739;DHT22;20063;51.730;11.110;2023-05-31T07:56:43;15.70;99.90
33739;DHT22;20063;51.730;11.110;2023-05-31T07:59:09;15.80;99.90
33739;DHT22;20063;51.730;11.110;2023-05-31T08:01:35;15.80;99.90
33739;DHT22;20063;51.730;11.110;2023-05-31T08:04:07;15.80;99.90
33739;DHT22;20063;51.730;11.110;2023-05-31T08:06:33;15.90;99.90
33739;DHT22;20063;51.730;11.110;2023-05-31T08:08:59;15.90;99.90
33739;DHT22;20063;51.730;11.110;2023-05-31T08:11:26;15.90;99.90
33739;DHT22;20063;51.730;11.110;2023-05-31T08:13:52;15.90;99.90
33739;DHT22;20063;51.730;11.110;2023-05-31T08:16:18;16.00;99.90
33739;DHT22;20063;51.730;11.110;2023-05-31T08:18:44;16.10;99.90
33739;DHT22;20063;51.730;11.110;2023-05-31T08:21:10;16.20;99.90
33739;DHT22;20063;51.730;11.110;2023-05-31T08:23:36;16.20;99.90
33739;DHT22;20063;51.730;11.110;2023-05-31T08:26:01;16.30;99.90
33739;DHT22;20063;51.730;11.110;2023-05-31T08:28:27;16.30;99.90
33739;DHT22;20063;51.730;11.110;2023-05-31T08:30:55;16.40;99.90
33739;DHT22;20063;51.730;11.110;2023-05-31T08:33:21;16.60;99.90
33739;DHT22;20063;51.730;11.110;2023-05-31T08:35:46;16.60;99.90
33739;DHT22;20063;51.730;11.110;2023-05-31T08:38:12;16.70;99.90
33739;DHT22;20063;51.730;11.110;2023-05-31T08:40:38;16.80;99.90
33739;DHT22;20063;51.730;11.110;2023-05-31T08:43:08;16.90;99.90
33739;DHT22;20063;51.730;11.110;2023-05-31T08:45:42;17.00;99.90
33739;DHT22;20063;51.730;11.110;2023-05-31T08:48:17;17.10;99.90
33739;DHT22;20063;51.730;11.110;2023-05-31T08:50:47;17.10;99.90
33739;DHT22;20063;51.730;11.110;2023-05-31T08:53:14;17.20;99.90
33739;DHT22;20063;51.730;11.110;2023-05-31T08:55:42;17.30;99.90
33739;DHT22;20063;51.730;11.110;2023-05-31T08:58:10;17.40;99.90
33739;DHT22;20063;51.730;11.110;2023-05-31T09:00:36;17.40;99.90
33739;DHT22;20063;51.730;11.110;2023-05-31T09:03:05;17.50;99.90
33739;DHT22;20063;51.730;11.110;2023-05-31T09:05:31;17.60;99.90
33739;DHT22;20063;51.730;11.110;2023-05-31T09:07:59;17.60;99.90
33739;DHT22;20063;51.730;11.110;2023-05-31T09:10:25;17.70;99.90
33739;DHT22;20063;51.730;11.110;2023-05-31T09:12:50;17.70;99.90
33739;DHT22;20063;51.730;11.110;2023-05-31T09:15:16;17.80;99.90
33739;DHT22;20063;51.730;11.110;2023-05-31T09:17:43;17.90;99.90
33739;DHT22;20063;51.730;11.110;2023-05-31T09:20:09;17.90;99.90
33739;DHT22;20063;51.730;11.110;2023-05-31T09:22:36;18.00;99.90
33739;DHT22;20063;51.730;11.110;2023-05-31T09:25:01;18.00;99.90
33739;DHT22;20063;51.730;11.110;2023-05-31T09:27:35;18.00;99.90
33739;DHT22;20063;51.730;11.110;2023-05-31T09:30:10;18.10;99.90
33739;DHT22;20063;51.730;11.110;2023-05-31T09:32:36;18.10;99.90
33739;DHT22;20063;51.730;11.110;2023-05-31T09:35:12;18.20;99.90
33739;DHT22;20063;51.730;11.110;2023-05-31T09:37:44;18.30;99.90
33739;DHT22;20063;51.730;11.110;2023-05-31T09:40:13;18.40;99.90
33739;DHT22;20063;51.730;11.110;2023-05-31T09:42:39;18.40;99.90
33739;DHT22;20063;51.730;11.110;2023-05-31T09:45:11;18.50;99.90
33739;DHT22;20063;51.730;11.110;2023-05-31T09:47:36;18.50;99.90
33739;DHT22;20063;51.730;11.110;2023-05-31T09:50:03;18.50;99.90
33739;DHT22;20063;51.730;11.110;2023-05-31T09:52:29;18.60;99.90
33739;DHT22;20063;51.730;11.110;2023-05-31T09:55:04;18.60;99.90
33739;DHT22;20063;51.730;11.110;2023-05-31T09:57:31;18.70;99.90
33739;DHT22;20063;51.730;11.110;2023-05-31T09:59:58;18.70;99.90
33739;DHT22;20063;51.730;11.110;2023-05-31T10:02:26;18.70;99.90
33739;DHT22;20063;51.730;11.110;2023-05-31T10:04:54;18.80;99.90
33739;DHT22;20063;51.730;11.110;2023-05-31T10:07:20;18.80;99.90
33739;DHT22;20063;51.730;11.110;2023-05-31T10:09:46;18.80;99.90
33739;DHT22;20063;51.730;11.110;2023-05-31T10:12:14;18.80;99.90
33739;DHT22;20063;51.730;11.110;2023-05-31T10:14:49;18.90;99.90
33739;DHT22;20063;51.730;11.110;2023-05-31T10:17:20;18.90;99.90
33739;DHT22;20063;51.730;11.110;2023-05-31T10:19:59;19.00;99.90
33739;DHT22;20063;51.730;11.110;2023-05-31T10:22:29;19.00;99.90
33739;DHT22;20063;51.730;11.110;2023-05-31T10:25:11;19.10;99.90
33739;DHT22;20063;51.730;11.110;2023-05-31T10:27:43;19.10;99.90
33739;DHT22;20063;51.730;11.110;2023-05-31T10:30:12;19.20;99.90
33739;DHT22;20063;51.730;11.110;2023-05-31T10:32:42;19.20;99.90
33739;DHT22;20063;51.730;11.110;2023-05-31T10:35:11;19.30;99.90
33739;DHT22;20063;51.730;11.110;2023-05-31T10:37:39;19.40;99.90
33739;DHT22;20063;51.730;11.110;2023-05-31T10:40:17;19.40;99.90
33739;DHT22;20063;51.730;11.110;2023-05-31T10:42:54;19.50;99.90
33739;DHT22;20063;51.730;11.110;2023-05-31T10:45:42;19.60;99.90
33739;DHT22;20063;51.730;11.110;2023-05-31T10:48:30;19.60;99.90
33739;DHT22;20063;51.730;11.110;2023-05-31T10:51:03;19.70;98.20
33739;DHT22;20063;51.730;11.110;2023-05-31T10:53:36;19.70;99.30
33739;DHT22;20063;51.730;11.110;2023-05-31T10:56:06;19.70;99.90
33739;DHT22;20063;51.730;11.110;2023-05-31T10:58:36;19.70;97.30
33739;DHT22;20063;51.730;11.110;2023-05-31T11:01:14;19.80;96.90
33739;DHT22;20063;51.730;11.110;2023-05-31T11:03:53;19.80;95.60
33739;DHT22;20063;51.730;11.110;2023-05-31T11:06:30;19.80;94.60
33739;DHT22;20063;51.730;11.110;2023-05-31T11:09:12;19.90;94.70
33739;DHT22;20063;51.730;11.110;2023-05-31T11:19:32;20.10;91.80
33739;DHT22;20063;51.730;11.110;2023-05-31T11:22:06;20.20;91.30
33739;DHT22;20063;51.730;11.110;2023-05-31T11:24:48;20.20;89.10
33739;DHT22;20063;51.730;11.110;2023-05-31T11:27:17;20.20;89.20
33739;DHT22;20063;51.730;11.110;2023-05-31T11:32:21;20.20;89.10
33739;DHT22;20063;51.730;11.110;2023-05-31T11:34:54;20.10;90.20
33739;DHT22;20063;51.730;11.110;2023-05-31T11:37:22;20.10;90.90
33739;DHT22;20063;51.730;11.110;2023-05-31T11:39:48;20.20;91.00
33739;DHT22;20063;51.730;11.110;2023-05-31T11:42:14;20.30;90.00
33739;DHT22;20063;51.730;11.110;2023-05-31T11:44:42;20.30;90.40
33739;DHT22;20063;51.730;11.110;2023-05-31T11:47:11;20.40;86.40
33739;DHT22;20063;51.730;11.110;2023-05-31T11:49:37;20.50;89.50
33739;DHT22;20063;51.730;11.110;2023-05-31T11:52:03;20.50;87.70
33739;DHT22;20063;51.730;11.110;2023-05-31T11:54:32;20.60;85.20
33739;DHT22;20063;51.730;11.110;2023-05-31T11:57:05;20.60;78.00
33739;DHT22;20063;51.730;11.110;2023-05-31T11:59:35;20.70;87.30
33739;DHT22;20063;51.730;11.110;2023-05-31T12:02:04;20.70;85.30
33739;DHT22;20063;51.730;11.110;2023-05-31T12:04:51;20.70;81.90
33739;DHT22;20063;51.730;11.110;2023-05-31T12:07:17;20.70;88.50
33739;DHT22;20063;51.730;11.110;2023-05-31T12:09:42;20.70;85.80
33739;DHT22;20063;51.730;11.110;2023-05-31T12:12:09;20.70;81.90
33739;DHT22;20063;51.730;11.110;2023-05-31T12:14:37;20.80;82.50
33739;DHT22;20063;51.730;11.110;2023-05-31T12:17:04;20.80;80.90
33739;DHT22;20063;51.730;11.110;2023-05-31T12:19:31;20.80;76.70
33739;DHT22;20063;51.730;11.110;2023-05-31T12:21:57;21.00;71.90
33739;DHT22;20063;51.730;11.110;2023-05-31T12:24:22;21.10;79.80
33739;DHT22;20063;51.730;11.110;2023-05-31T12:26:48;21.20;73.20
33739;DHT22;20063;51.730;11.110;2023-05-31T12:29:15;21.20;72.40
33739;DHT22;20063;51.730;11.110;2023-05-31T12:31:41;21.20;69.90
33739;DHT22;20063;51.730;11.110;2023-05-31T12:34:16;21.20;69.40
33739;DHT22;20063;51.730;11.110;2023-05-31T12:36:48;21.10;69.10
33739;DHT22;20063;51.730;11.110;2023-05-31T12:39:22;21.20;71.70
33739;DHT22;20063;51.730;11.110;2023-05-31T12:41:50;21.20;70.00
33739;DHT22;20063;51.730;11.110;2023-05-31T12:44:17;21.20;70.10
33739;DHT22;20063;51.730;11.110;2023-05-31T12:46:46;21.20;67.90
33739;DHT22;20063;51.730;11.110;2023-05-31T12:49:14;21.10;68.80
33739;DHT22;20063;51.730;11.110;2023-05-31T12:51:41;21.20;74.50
33739;DHT22;20063;51.730;11.110;2023-05-31T12:54:11;21.30;75.60
33739;DHT22;20063;51.730;11.110;2023-05-31T12:56:38;21.40;73.30
33739;DHT22;20063;51.730;11.110;2023-05-31T12:59:04;21.30;70.30
33739;DHT22;20063;51.730;11.110;2023-05-31T13:01:30;21.30;70.00
33739;DHT22;20063;51.730;11.110;2023-05-31T13:03:56;21.30;75.50
33739;DHT22;20063;51.730;11.110;2023-05-31T13:06:21;21.30;74.60
33739;DHT22;20063;51.730;11.110;2023-05-31T13:08:47;21.30;73.10
33739;DHT22;20063;51.730;11.110;2023-05-31T13:11:13;21.30;72.10
33739;DHT22;20063;51.730;11.110;2023-05-31T13:13:39;21.30;74.40
33739;DHT22;20063;51.730;11.110;2023-05-31T13:16:05;21.40;74.50
33739;DHT22;20063;51.730;11.110;2023-05-31T13:18:30;21.40;74.20
33739;DHT22;20063;51.730;11.110;2023-05-31T13:20:56;21.40;79.10
33739;DHT22;20063;51.730;11.110;2023-05-31T13:23:24;21.40;78.00
33739;DHT22;20063;51.730;11.110;2023-05-31T13:25:50;21.40;77.30
33739;DHT22;20063;51.730;11.110;2023-05-31T13:28:16;21.50;82.10
33739;DHT22;20063;51.730;11.110;2023-05-31T13:30:42;21.60;84.90
33739;DHT22;20063;51.730;11.110;2023-05-31T13:33:07;21.60;81.40
33739;DHT22;20063;51.730;11.110;2023-05-31T13:35:33;21.60;81.00
33739;DHT22;20063;51.730;11.110;2023-05-31T13:38:01;21.60;78.50
33739;DHT22;20063;51.730;11.110;2023-05-31T13:40:26;21.50;79.90
33739;DHT22;20063;51.730;11.110;2023-05-31T13:42:52;21.50;84.60
33739;DHT22;20063;51.730;11.110;2023-05-31T13:45:17;21.50;86.40
33739;DHT22;20063;51.730;11.110;2023-05-31T13:47:43;21.60;88.00
33739;DHT22;20063;51.730;11.110;2023-05-31T13:50:09;21.60;86.60
33739;DHT22;20063;51.730;11.110;2023-05-31T13:52:35;21.60;86.70
33739;DHT22;20063;51.730;11.110;2023-05-31T13:55:01;21.70;84.70
33739;DHT22;20063;51.730;11.110;2023-05-31T13:57:27;21.70;79.80
33739;DHT22;20063;51.730;11.110;2023-05-31T13:59:52;21.70;77.10
33739;DHT22;20063;51.730;11.110;2023-05-31T14:02:18;21.70;76.40
33739;DHT22;20063;51.730;11.110;2023-05-31T14:04:44;21.70;75.50
33739;DHT22;20063;51.730;11.110;2023-05-31T14:07:09;21.70;77.40
33739;DHT22;20063;51.730;11.110;2023-05-31T14:09:35;21.80;80.90
33739;DHT22;20063;51.730;11.110;2023-05-31T14:12:01;21.80;75.90
33739;DHT22;20063;51.730;11.110;2023-05-31T14:14:26;21.80;71.00
33739;DHT22;20063;51.730;11.110;2023-05-31T14:16:52;21.70;74.20
33739;DHT22;20063;51.730;11.110;2023-05-31T14:19:18;21.70;76.40
33739;DHT22;20063;51.730;11.110;2023-05-31T14:21:43;21.70;81.90
33739;DHT22;20063;51.730;11.110;2023-05-31T14:24:09;21.70;77.40
33739;DHT22;20063;51.730;11.110;2023-05-31T14:26:35;21.80;74.70
33739;DHT22;20063;51.730;11.110;2023-05-31T14:29:00;21.80;74.30
33739;DHT22;20063;51.730;11.110;2023-05-31T14:31:28;21.70;73.10
33739;DHT22;20063;51.730;11.110;2023-05-31T14:33:53;21.80;70.30
33739;DHT22;20063;51.730;11.110;2023-05-31T14:36:19;21.80;67.60
33739;DHT22;20063;51.730;11.110;2023-05-31T14:38:44;21.90;64.50
33739;DHT22;20063;51.730;11.110;2023-05-31T14:41:10;21.90;63.60
33739;DHT22;20063;51.730;11.110;2023-05-31T14:43:35;21.90;64.90
33739;DHT22;20063;51.730;11.110;2023-05-31T14:46:01;22.00;62.80
33739;DHT22;20063;51.730;11.110;2023-05-31T14:48:26;22.00;61.00
33739;DHT22;20063;51.730;11.110;2023-05-31T14:50:52;22.00;61.20
33739;DHT22;20063;51.730;11.110;2023-05-31T14:53:18;22.00;60.60
33739;DHT22;20063;51.730;11.110;2023-05-31T14:55:44;22.00;61.50
33739;DHT22;20063;51.730;11.110;2023-05-31T14:58:09;22.00;62.10
33739;DHT22;20063;51.730;11.110;2023-05-31T15:00:36;22.00;64.40
33739;DHT22;20063;51.730;11.110;2023-05-31T15:03:01;22.00;64.80
33739;DHT22;20063;51.730;11.110;2023-05-31T15:05:27;22.00;64.40
33739;DHT22;20063;51.730;11.110;2023-05-31T15:07:53;21.90;64.90
33739;DHT22;20063;51.730;11.110;2023-05-31T15:10:18;21.90;65.10
33739;DHT22;20063;51.730;11.110;2023-05-31T15:12:44;21.90;65.80
33739;DHT22;20063;51.730;11.110;2023-05-31T15:15:13;21.90;67.70
33739;DHT22;20063;51.730;11.110;2023-05-31T15:17:40;22.10;68.60
33739;DHT22;20063;51.730;11.110;2023-05-31T15:20:06;22.10;65.30
33739;DHT22;20063;51.730;11.110;2023-05-31T15:22:32;22.20;63.20
33739;DHT22;20063;51.730;11.110;2023-05-31T15:24:58;22.10;62.80
33739;DHT22;20063;51.730;11.110;2023-05-31T15:27:24;22.10;65.80
33739;DHT22;20063;51.730;11.110;2023-05-31T15:29:49;22.10;66.40
33739;DHT22;20063;51.730;11.110;2023-05-31T15:32:15;22.20;68.90
33739;DHT22;20063;51.730;11.110;2023-05-31T15:34:40;22.20;65.10
33739;DHT22;20063;51.730;11.110;2023-05-31T15:37:06;22.20;63.20